createdAt,value
2018-05-26T00:00:17.414Z,70.19
2018-05-26T00:01:24.458Z,70.23
2018-05-26T00:02:31.197Z,70.22
2018-05-26T00:03:37.937Z,70.24
2018-05-26T00:04:44.653Z,70.23
2018-05-26T00:05:51.454Z,70.33
2018-05-26T00:06:58.190Z,70.30
2018-05-26T00:08:04.947Z,70.30
2018-05-26T00:09:11.673Z,70.30
2018-05-26T00:10:18.453Z,70.29
2018-05-26T00:11:25.181Z,70.32
2018-05-26T00:12:31.954Z,70.39
2018-05-26T00:13:38.660Z,70.42
2018-05-26T00:14:45.437Z,70.38
2018-05-26T00:15:52.156Z,70.38
2018-05-26T00:16:58.885Z,70.34
2018-05-26T00:18:05.645Z,70.35
2018-05-26T00:19:12.443Z,70.39
2018-05-26T00:20:19.154Z,70.46
2018-05-26T00:21:25.882Z,70.55
2018-05-26T00:22:32.634Z,70.57
2018-05-26T00:23:39.414Z,70.53
2018-05-26T00:24:46.118Z,70.51
2018-05-26T00:25:52.830Z,70.47
2018-05-26T00:26:38.635Z,70.55
2018-05-26T00:27:44.898Z,70.56
2018-05-26T00:28:51.618Z,70.64
2018-05-26T00:29:58.309Z,70.69
2018-05-26T00:31:05.031Z,70.72
2018-05-26T00:32:11.741Z,70.69
2018-05-26T00:33:18.506Z,70.59
2018-05-26T00:34:25.210Z,70.59
2018-05-26T00:35:31.950Z,70.67
2018-05-26T00:36:38.708Z,70.67
2018-05-26T00:37:45.463Z,70.69
2018-05-26T00:38:52.191Z,70.71
2018-05-26T00:39:58.939Z,70.70
2018-05-26T00:41:05.666Z,70.67
2018-05-26T00:42:12.394Z,70.68
2018-05-26T00:43:19.126Z,70.72
2018-05-26T00:44:25.840Z,70.70
2018-05-26T00:45:32.581Z,70.78
2018-05-26T00:46:39.365Z,70.80
2018-05-26T00:47:46.085Z,70.81
2018-05-26T00:48:52.815Z,70.84
2018-05-26T00:49:59.531Z,70.85
2018-05-26T00:51:06.310Z,70.83
2018-05-26T00:52:13.008Z,70.85
2018-05-26T00:53:19.746Z,70.84
2018-05-26T00:54:26.474Z,70.88
2018-05-26T00:55:33.178Z,70.89
2018-05-26T00:56:39.921Z,70.94
2018-05-26T00:57:46.640Z,70.96
2018-05-26T00:58:53.410Z,70.99
2018-05-26T01:00:00.166Z,70.92
2018-05-26T01:01:07.103Z,70.94
2018-05-26T01:02:13.817Z,70.99
2018-05-26T01:03:20.681Z,70.98
2018-05-26T01:04:27.423Z,70.95
2018-05-26T01:05:34.145Z,71.00
2018-05-26T01:06:40.870Z,71.03
2018-05-26T01:07:47.670Z,71.06
2018-05-26T01:08:54.433Z,71.10
2018-05-26T01:10:01.178Z,71.07
2018-05-26T01:11:07.912Z,71.07
2018-05-26T01:12:14.647Z,71.08
2018-05-26T01:13:21.394Z,71.13
2018-05-26T01:14:28.132Z,71.10
2018-05-26T01:15:34.854Z,71.14
2018-05-26T01:16:41.622Z,71.13
2018-05-26T01:17:48.342Z,71.15
2018-05-26T01:18:55.114Z,71.23
2018-05-26T01:20:01.851Z,71.25
2018-05-26T01:21:08.598Z,71.24
2018-05-26T01:22:15.346Z,71.18
2018-05-26T01:23:22.090Z,71.25
2018-05-26T01:24:29.122Z,71.33
2018-05-26T01:25:35.850Z,71.29
2018-05-26T01:26:42.646Z,71.29
2018-05-26T01:27:49.511Z,71.28
2018-05-26T01:28:56.230Z,71.32
2018-05-26T01:30:02.970Z,71.29
2018-05-26T01:31:09.679Z,71.26
2018-05-26T01:32:16.415Z,71.29
2018-05-26T01:33:23.766Z,71.37
2018-05-26T01:34:30.263Z,71.37
2018-05-26T01:35:36.982Z,71.39
2018-05-26T01:36:43.798Z,71.44
2018-05-26T01:37:50.502Z,71.49
2018-05-26T01:38:57.239Z,71.56
2018-05-26T01:40:03.959Z,71.57
2018-05-26T01:41:10.702Z,71.60
2018-05-26T01:42:17.449Z,71.62
2018-05-26T01:43:24.178Z,71.69
2018-05-26T01:44:30.940Z,71.72
2018-05-26T01:45:37.698Z,71.75
2018-05-26T01:46:44.410Z,71.75
2018-05-26T01:47:51.143Z,71.70
2018-05-26T01:48:57.901Z,71.70
2018-05-26T01:50:04.598Z,71.74
2018-05-26T01:51:11.313Z,71.77
2018-05-26T01:52:18.018Z,71.79
2018-05-26T01:53:24.709Z,71.85
2018-05-26T01:54:31.497Z,71.88
2018-05-26T01:55:38.206Z,71.83
2018-05-26T01:56:45.011Z,71.84
2018-05-26T01:57:51.722Z,71.81
2018-05-26T01:58:58.468Z,71.81
2018-05-26T02:00:05.205Z,71.83
2018-05-26T02:01:11.925Z,71.82
2018-05-26T02:02:18.630Z,71.81
2018-05-26T02:03:25.420Z,71.88
2018-05-26T02:04:32.143Z,71.91
2018-05-26T02:05:38.894Z,71.96
2018-05-26T02:06:45.614Z,71.95
2018-05-26T02:07:53.185Z,71.92
2018-05-26T02:08:59.128Z,71.94
2018-05-26T02:10:05.855Z,71.98
2018-05-26T02:11:12.826Z,72.00
2018-05-26T02:12:19.574Z,72.05
2018-05-26T02:13:26.262Z,72.08
2018-05-26T02:14:33.005Z,72.07
2018-05-26T02:15:39.710Z,72.10
2018-05-26T02:16:46.435Z,72.13
2018-05-26T02:17:53.162Z,72.12
2018-05-26T02:18:59.893Z,72.11
2018-05-26T02:20:06.670Z,72.11
2018-05-26T02:21:13.395Z,72.11
2018-05-26T02:22:20.282Z,72.05
2018-05-26T02:23:27.014Z,72.01
2018-05-26T02:24:33.742Z,72.00
2018-05-26T02:25:40.782Z,72.04
2018-05-26T02:26:47.523Z,72.04
2018-05-26T02:27:54.249Z,72.05
2018-05-26T02:29:01.118Z,72.07
2018-05-26T02:30:07.863Z,72.11
2018-05-26T02:31:15.082Z,72.12
2018-05-26T02:32:21.715Z,72.15
2018-05-26T02:33:28.445Z,72.12
2018-05-26T02:34:35.193Z,72.15
2018-05-26T02:35:41.936Z,72.11
2018-05-26T02:36:48.674Z,72.15
2018-05-26T02:37:55.464Z,72.16
2018-05-26T02:39:02.178Z,72.16
2018-05-26T02:40:08.891Z,72.20
2018-05-26T02:41:15.627Z,72.26
2018-05-26T02:42:22.402Z,72.27
2018-05-26T02:43:29.134Z,72.31
2018-05-26T02:44:35.911Z,72.32
2018-05-26T02:45:42.621Z,72.37
2018-05-26T02:46:49.346Z,72.39
2018-05-26T02:47:56.066Z,72.37
2018-05-26T02:49:02.807Z,72.33
2018-05-26T02:50:09.558Z,72.28
2018-05-26T02:51:16.285Z,72.33
2018-05-26T02:52:22.970Z,72.33
2018-05-26T02:53:29.713Z,72.34
2018-05-26T02:54:36.434Z,72.37
2018-05-26T02:55:43.232Z,72.40
2018-05-26T02:56:49.953Z,72.41
2018-05-26T02:57:56.652Z,72.46
2018-05-26T02:59:03.372Z,72.46
2018-05-26T03:00:10.194Z,72.45
2018-05-26T03:01:16.931Z,72.48
2018-05-26T03:02:23.683Z,72.51
2018-05-26T03:03:30.391Z,72.53
2018-05-26T03:04:37.138Z,72.58
2018-05-26T03:05:43.949Z,72.57
2018-05-26T03:06:50.850Z,72.60
2018-05-26T03:07:57.770Z,72.58
2018-05-26T03:09:04.586Z,72.62
2018-05-26T03:10:11.554Z,72.65
2018-05-26T03:11:18.605Z,72.63
2018-05-26T03:12:25.741Z,72.60
2018-05-26T03:13:32.090Z,72.67
2018-05-26T03:14:39.126Z,72.70
2018-05-26T03:15:46.006Z,72.70
2018-05-26T03:16:52.669Z,72.72
2018-05-26T03:17:59.457Z,72.83
2018-05-26T03:19:06.231Z,72.87
2018-05-26T03:20:13.314Z,72.92
2018-05-26T03:21:20.043Z,72.92
2018-05-26T03:22:26.755Z,72.95
2018-05-26T03:23:33.490Z,73.00
2018-05-26T03:24:40.188Z,73.06
2018-05-26T03:25:46.951Z,73.02
2018-05-26T03:26:53.681Z,73.03
2018-05-26T03:28:00.383Z,73.05
2018-05-26T03:29:07.110Z,73.17
2018-05-26T03:30:13.848Z,73.18
2018-05-26T03:31:20.560Z,73.19
2018-05-26T03:32:27.289Z,73.21
2018-05-26T03:33:33.985Z,73.28
2018-05-26T03:34:40.741Z,73.32
2018-05-26T03:35:47.474Z,73.38
2018-05-26T03:36:54.194Z,73.44
2018-05-26T03:38:00.930Z,73.48
2018-05-26T03:39:07.659Z,73.49
2018-05-26T03:40:14.415Z,73.46
2018-05-26T03:41:21.131Z,73.48
2018-05-26T03:42:27.838Z,73.52
2018-05-26T03:43:34.582Z,73.56
2018-05-26T03:44:41.313Z,73.65
2018-05-26T03:45:48.059Z,73.69
2018-05-26T03:46:54.793Z,73.75
2018-05-26T03:48:01.491Z,73.80
2018-05-26T03:49:08.211Z,73.83
2018-05-26T03:50:14.990Z,73.84
2018-05-26T03:51:21.788Z,73.92
2018-05-26T03:52:28.502Z,73.93
2018-05-26T03:53:35.217Z,73.97
2018-05-26T03:54:41.922Z,73.98
2018-05-26T03:55:48.775Z,74.07
2018-05-26T03:56:55.562Z,74.14
2018-05-26T03:58:03.150Z,74.19
2018-05-26T03:59:14.504Z,74.23
2018-05-26T04:00:21.646Z,74.25
2018-05-26T04:01:28.453Z,74.28
2018-05-26T04:02:35.686Z,74.36
2018-05-26T04:03:42.423Z,74.43
2018-05-26T04:04:49.138Z,74.50
2018-05-26T04:05:55.958Z,74.56
2018-05-26T04:07:02.602Z,74.62
2018-05-26T04:08:09.395Z,74.68
2018-05-26T04:09:16.111Z,74.74
2018-05-26T04:10:22.814Z,74.84
2018-05-26T04:11:29.554Z,74.93
2018-05-26T04:12:36.350Z,74.99
2018-05-26T04:13:43.073Z,75.06
2018-05-26T04:14:49.804Z,75.16
2018-05-26T04:15:56.557Z,75.19
2018-05-26T04:17:03.307Z,75.23
2018-05-26T04:18:09.993Z,75.27
2018-05-26T04:19:16.702Z,75.30
2018-05-26T04:20:23.424Z,75.39
2018-05-26T04:21:30.154Z,75.45
2018-05-26T04:22:36.924Z,75.51
2018-05-26T04:23:43.631Z,75.56
2018-05-26T04:24:50.339Z,75.66
2018-05-26T04:25:57.054Z,75.70
2018-05-26T04:27:03.906Z,75.75
2018-05-26T04:28:10.640Z,75.85
2018-05-26T04:29:17.378Z,75.92
2018-05-26T04:30:24.104Z,75.99
2018-05-26T04:31:30.869Z,76.09
2018-05-26T04:32:37.838Z,76.17
2018-05-26T04:33:44.638Z,76.31
2018-05-26T04:34:51.322Z,76.38
2018-05-26T04:35:58.066Z,76.50
2018-05-26T04:37:04.794Z,76.56
2018-05-26T04:38:11.631Z,76.66
2018-05-26T04:39:18.382Z,76.82
2018-05-26T04:40:25.099Z,76.89
2018-05-26T04:41:31.827Z,76.99
2018-05-26T04:42:38.931Z,77.08
2018-05-26T04:43:45.659Z,77.16
2018-05-26T04:44:52.357Z,77.30
2018-05-26T04:45:59.088Z,77.41
2018-05-26T04:47:05.829Z,77.50
2018-05-26T04:48:12.634Z,77.59
2018-05-26T04:49:19.358Z,77.71
2018-05-26T04:50:26.065Z,77.82
2018-05-26T04:51:32.807Z,77.87
2018-05-26T04:52:39.813Z,77.99
2018-05-26T04:53:46.509Z,78.09
2018-05-26T04:54:53.238Z,78.16
2018-05-26T04:55:59.938Z,78.22
2018-05-26T04:57:06.666Z,78.31
2018-05-26T04:58:13.397Z,78.33
2018-05-26T04:59:20.133Z,78.41
2018-05-26T05:00:26.935Z,78.53
2018-05-26T05:01:33.670Z,78.67
2018-05-26T05:02:40.730Z,78.75
2018-05-26T05:03:47.457Z,78.90
2018-05-26T05:04:54.166Z,79.07
2018-05-26T05:06:00.869Z,79.16
2018-05-26T05:07:07.630Z,79.22
2018-05-26T05:08:14.310Z,79.35
2018-05-26T05:09:21.026Z,79.41
2018-05-26T05:10:27.759Z,79.46
2018-05-26T05:11:34.458Z,79.55
2018-05-26T05:12:41.266Z,79.71
2018-05-26T05:13:48.022Z,79.78
2018-05-26T05:14:55.006Z,79.82
2018-05-26T05:16:01.714Z,79.92
2018-05-26T05:17:08.474Z,80.07
2018-05-26T05:18:15.195Z,80.15
2018-05-26T05:19:21.941Z,80.25
2018-05-26T05:20:28.664Z,80.36
2018-05-26T05:21:35.366Z,80.50
2018-05-26T05:22:42.171Z,80.65
2018-05-26T05:23:48.910Z,80.73
2018-05-26T05:24:55.595Z,80.86
2018-05-26T05:26:02.347Z,81.00
2018-05-26T05:27:09.180Z,81.12
2018-05-26T05:28:17.651Z,81.27
2018-05-26T05:29:23.666Z,81.40
2018-05-26T05:30:29.882Z,81.56
2018-05-26T05:31:36.595Z,81.70
2018-05-26T05:32:44.300Z,81.86
2018-05-26T05:33:50.725Z,81.94
2018-05-26T05:34:57.571Z,82.08
2018-05-26T05:36:04.319Z,82.22
2018-05-26T05:37:11.591Z,82.29
2018-05-26T05:38:18.377Z,82.40
2018-05-26T05:39:25.767Z,82.51
2018-05-26T05:40:32.303Z,82.64
2018-05-26T05:41:39.217Z,82.76
2018-05-26T05:42:46.123Z,82.85
2018-05-26T05:43:55.939Z,83.05
2018-05-26T05:45:00.129Z,83.14
2018-05-26T05:46:06.894Z,83.29
2018-05-26T05:47:14.228Z,83.45
2018-05-26T05:48:20.866Z,83.59
2018-05-26T05:49:27.567Z,83.75
2018-05-26T05:50:34.417Z,83.91
2018-05-26T05:51:42.653Z,84.01
2018-05-26T05:52:48.622Z,84.22
2018-05-26T05:53:55.506Z,84.41
2018-05-26T05:55:02.442Z,84.59
2018-05-26T05:56:09.288Z,84.72
2018-05-26T05:57:16.496Z,84.86
2018-05-26T05:58:23.484Z,84.95
2018-05-26T05:59:30.162Z,85.09
2018-05-26T06:00:37.241Z,85.21
2018-05-26T06:01:44.334Z,85.34
2018-05-26T06:02:51.212Z,85.48
2018-05-26T06:03:58.048Z,85.62
2018-05-26T06:05:04.863Z,85.75
2018-05-26T06:06:15.804Z,85.86
2018-05-26T06:07:21.055Z,86.00
2018-05-26T06:08:25.988Z,86.15
2018-05-26T06:09:32.737Z,86.29
2018-05-26T06:10:39.583Z,86.38
2018-05-26T06:11:46.958Z,86.50
2018-05-26T06:12:53.472Z,86.58
2018-05-26T06:14:00.172Z,86.73
2018-05-26T06:15:07.002Z,86.85
2018-05-26T06:16:14.139Z,86.97
2018-05-26T06:17:20.892Z,87.07
2018-05-26T06:18:29.042Z,87.16
2018-05-26T06:19:34.630Z,87.27
2018-05-26T06:20:41.483Z,87.41
2018-05-26T06:21:48.224Z,87.53
2018-05-26T06:23:00.329Z,87.62
2018-05-26T06:24:01.965Z,87.73
2018-05-26T06:25:08.765Z,87.88
2018-05-26T06:26:16.202Z,87.97
2018-05-26T06:27:22.410Z,88.12
2018-05-26T06:28:29.252Z,88.21
2018-05-26T06:29:38.952Z,88.35
2018-05-26T06:30:43.201Z,88.52
2018-05-26T06:31:50.085Z,88.64
2018-05-26T06:33:03.552Z,88.74
2018-05-26T06:34:03.748Z,88.87
2018-05-26T06:35:10.313Z,89.01
2018-05-26T06:36:17.287Z,89.16
2018-05-26T06:37:24.115Z,89.29
2018-05-26T06:38:31.598Z,89.39
2018-05-26T06:39:37.723Z,89.48
2018-05-26T06:40:44.539Z,89.65
2018-05-26T06:41:51.316Z,89.83
2018-05-26T06:42:59.526Z,89.91
2018-05-26T06:44:05.671Z,90.03
2018-05-26T06:45:12.502Z,90.17
2018-05-26T06:46:20.830Z,90.26
2018-05-26T06:47:26.175Z,90.41
2018-05-26T06:49:39.971Z,90.74
2018-05-26T06:50:46.746Z,90.83
2018-05-26T06:51:57.643Z,90.91
2018-05-26T06:53:00.503Z,90.97
2018-05-26T06:54:07.358Z,91.07
2018-05-26T06:55:14.369Z,91.16
2018-05-26T06:56:21.269Z,91.26
2018-05-26T06:57:28.035Z,91.32
2018-05-26T06:58:34.772Z,91.37
2018-05-26T06:59:41.833Z,91.48
2018-05-26T07:00:48.457Z,91.59
2018-05-26T07:01:55.593Z,91.68
2018-05-26T07:03:08.487Z,91.78
2018-05-26T07:04:09.679Z,91.86
2018-05-26T07:05:16.453Z,91.96
2018-05-26T07:06:23.016Z,92.05
2018-05-26T07:07:30.062Z,92.17
2018-05-26T07:08:37.030Z,92.22
2018-05-26T07:09:43.758Z,92.30
2018-05-26T07:10:50.562Z,92.33
2018-05-26T07:11:57.627Z,92.45
2018-05-26T07:13:04.431Z,92.51
2018-05-26T07:14:11.135Z,92.57
2018-05-26T07:15:17.865Z,92.64
2018-05-26T07:16:24.594Z,92.73
2018-05-26T07:17:31.339Z,92.78
2018-05-26T07:18:38.062Z,92.86
2018-05-26T07:19:44.783Z,92.96
2018-05-26T07:20:51.543Z,93.06
2018-05-26T07:21:58.279Z,93.13
2018-05-26T07:23:04.998Z,93.17
2018-05-26T07:24:11.779Z,93.25
2018-05-26T07:25:18.492Z,93.32
2018-05-26T07:26:25.199Z,93.39
2018-05-26T07:27:31.942Z,93.46
2018-05-26T07:28:38.712Z,93.54
2018-05-26T07:29:45.531Z,93.61
2018-05-26T07:30:52.222Z,93.66
2018-05-26T07:31:58.918Z,93.71
2018-05-26T07:33:05.650Z,93.78
2018-05-26T07:34:12.470Z,93.83
2018-05-26T07:35:19.226Z,93.86
2018-05-26T07:36:25.960Z,93.92
2018-05-26T07:37:32.766Z,93.97
2018-05-26T07:38:39.808Z,94.05
2018-05-26T07:39:46.238Z,94.11
2018-05-26T07:40:52.993Z,94.17
2018-05-26T07:41:59.727Z,94.24
2018-05-26T07:43:06.484Z,94.26
2018-05-26T07:44:13.222Z,94.32
2018-05-26T07:45:20.023Z,94.41
2018-05-26T07:46:26.794Z,94.47
2018-05-26T07:47:33.498Z,94.48
2018-05-26T07:48:40.238Z,94.56
2018-05-26T07:49:46.958Z,94.62
2018-05-26T07:50:53.670Z,94.68
2018-05-26T07:52:00.391Z,94.72
2018-05-26T07:53:07.145Z,94.79
2018-05-26T07:54:13.854Z,94.82
2018-05-26T07:55:20.687Z,94.87
2018-05-26T07:56:27.495Z,94.93
2018-05-26T07:57:34.179Z,94.96
2018-05-26T07:58:41.126Z,95.03
2018-05-26T07:59:47.930Z,95.09
2018-05-26T08:00:54.711Z,95.13
2018-05-26T08:02:01.463Z,95.18
2018-05-26T08:03:08.307Z,95.23
2018-05-26T08:04:15.070Z,95.25
2018-05-26T08:05:21.843Z,95.30
2018-05-26T08:06:28.690Z,95.37
2018-05-26T08:07:35.472Z,95.44
2018-05-26T08:08:42.233Z,95.53
2018-05-26T08:09:49.071Z,95.56
2018-05-26T08:10:55.868Z,95.62
2018-05-26T08:12:02.588Z,95.66
2018-05-26T08:13:09.719Z,95.68
2018-05-26T08:14:16.544Z,95.68
2018-05-26T08:15:23.311Z,95.69
2018-05-26T08:16:30.062Z,95.71
2018-05-26T08:17:36.759Z,95.77
2018-05-26T08:18:43.538Z,95.81
2018-05-26T08:19:50.352Z,95.79
2018-05-26T08:20:57.100Z,95.75
2018-05-26T08:22:03.905Z,95.72
2018-05-26T08:23:10.631Z,95.72
2018-05-26T08:24:17.379Z,95.72
2018-05-26T08:25:24.118Z,95.71
2018-05-26T08:26:30.899Z,95.71
2018-05-26T08:27:37.635Z,95.63
2018-05-26T08:28:44.413Z,95.51
2018-05-26T08:29:51.138Z,95.40
2018-05-26T08:30:57.882Z,95.26
2018-05-26T08:32:04.588Z,95.12
2018-05-26T08:33:11.295Z,94.97
2018-05-26T08:34:18.059Z,94.75
2018-05-26T08:35:24.886Z,94.61
2018-05-26T08:36:31.588Z,94.49
2018-05-26T08:37:38.343Z,94.30
2018-05-26T08:38:45.097Z,94.26
2018-05-26T08:39:51.898Z,94.40
2018-05-26T08:40:58.625Z,94.41
2018-05-26T08:42:05.347Z,94.42
2018-05-26T08:43:12.066Z,94.50
2018-05-26T08:44:18.871Z,94.36
2018-05-26T08:45:25.665Z,94.19
2018-05-26T08:46:32.390Z,94.32
2018-05-26T08:47:39.100Z,94.19
2018-05-26T08:48:45.863Z,94.03
2018-05-26T08:49:52.618Z,93.91
2018-05-26T08:50:59.322Z,93.81
2018-05-26T08:52:06.059Z,93.84
2018-05-26T08:53:12.858Z,93.81
2018-05-26T08:54:19.606Z,93.70
2018-05-26T08:55:26.396Z,93.69
2018-05-26T08:56:33.247Z,93.90
2018-05-26T08:57:39.976Z,94.06
2018-05-26T08:58:46.721Z,94.14
2018-05-26T08:59:53.496Z,94.17
2018-05-26T09:01:00.216Z,94.13
2018-05-26T09:02:06.974Z,94.12
2018-05-26T09:03:13.718Z,93.95
2018-05-26T09:04:20.458Z,94.01
2018-05-26T09:05:27.220Z,94.01
2018-05-26T09:06:34.007Z,93.89
2018-05-26T09:07:40.750Z,93.78
2018-05-26T09:08:47.601Z,93.53
2018-05-26T09:09:54.458Z,93.50
2018-05-26T09:11:01.178Z,93.34
2018-05-26T09:12:07.912Z,93.23
2018-05-26T09:13:14.603Z,93.00
2018-05-26T09:14:21.357Z,92.83
2018-05-26T09:15:28.094Z,92.67
2018-05-26T09:16:34.879Z,92.72
2018-05-26T09:17:41.635Z,92.71
2018-05-26T09:18:48.368Z,92.46
2018-05-26T09:19:55.115Z,92.09
2018-05-26T09:21:01.838Z,91.85
2018-05-26T09:22:08.567Z,91.91
2018-05-26T09:23:15.299Z,91.74
2018-05-26T09:24:21.988Z,91.44
2018-05-26T09:25:28.847Z,91.07
2018-05-26T09:26:35.571Z,90.81
2018-05-26T09:27:42.295Z,90.65
2018-05-26T09:28:49.045Z,90.51
2018-05-26T09:29:55.834Z,90.55
2018-05-26T09:31:02.558Z,90.50
2018-05-26T09:32:09.282Z,90.36
2018-05-26T09:33:15.966Z,90.35
2018-05-26T09:34:22.674Z,90.14
2018-05-26T09:35:29.438Z,90.05
2018-05-26T09:36:36.137Z,90.02
2018-05-26T09:37:42.939Z,89.65
2018-05-26T09:38:49.639Z,89.33
2018-05-26T09:39:56.424Z,89.21
2018-05-26T09:41:03.139Z,89.16
2018-05-26T09:42:09.863Z,88.92
2018-05-26T09:43:16.630Z,88.87
2018-05-26T09:44:23.410Z,88.73
2018-05-26T09:45:30.143Z,88.77
2018-05-26T09:46:36.870Z,88.89
2018-05-26T09:47:43.607Z,88.84
2018-05-26T09:48:50.403Z,88.65
2018-05-26T09:49:57.138Z,88.45
2018-05-26T09:51:03.895Z,87.97
2018-05-26T09:52:10.610Z,87.66
2018-05-26T09:53:17.411Z,87.62
2018-05-26T09:54:24.130Z,87.51
2018-05-26T09:55:31.184Z,87.55
2018-05-26T09:56:37.942Z,87.66
2018-05-26T09:57:44.677Z,87.86
2018-05-26T09:58:51.412Z,87.51
2018-05-26T09:59:58.195Z,87.07
2018-05-26T10:01:04.950Z,87.16
2018-05-26T10:02:11.687Z,87.38
2018-05-26T10:03:18.535Z,86.69
2018-05-26T10:04:25.328Z,86.40
2018-05-26T10:05:32.120Z,86.39
2018-05-26T10:06:38.879Z,86.27
2018-05-26T10:07:45.591Z,86.23
2018-05-26T10:08:52.336Z,86.26
2018-05-26T10:09:59.059Z,86.27
2018-05-26T10:11:05.887Z,86.26
2018-05-26T10:12:12.624Z,85.82
2018-05-26T10:13:19.366Z,86.05
2018-05-26T10:14:26.102Z,85.81
2018-05-26T10:15:32.866Z,85.69
2018-05-26T10:16:39.596Z,85.97
2018-05-26T10:17:46.366Z,85.70
2018-05-26T10:18:53.106Z,85.65
2018-05-26T10:19:59.893Z,85.09
2018-05-26T10:21:06.826Z,84.94
2018-05-26T10:22:13.773Z,84.54
2018-05-26T10:23:20.515Z,84.45
2018-05-26T10:24:27.271Z,84.59
2018-05-26T10:25:33.999Z,84.03
2018-05-26T10:26:40.767Z,84.20
2018-05-26T10:27:47.528Z,83.91
2018-05-26T10:28:54.309Z,83.55
2018-05-26T10:30:01.076Z,83.59
2018-05-26T10:31:07.862Z,83.26
2018-05-26T10:32:14.632Z,83.04
2018-05-26T10:33:21.626Z,82.46
2018-05-26T10:34:28.319Z,81.97
2018-05-26T10:35:35.044Z,81.79
2018-05-26T10:36:41.766Z,81.85
2018-05-26T10:37:48.662Z,81.72
2018-05-26T10:38:55.411Z,82.03
2018-05-26T10:40:02.138Z,82.35
2018-05-26T10:41:08.917Z,82.37
2018-05-26T10:42:15.658Z,81.82
2018-05-26T10:43:22.410Z,81.09
2018-05-26T10:44:29.160Z,80.89
2018-05-26T10:45:35.921Z,81.06
2018-05-26T10:46:43.105Z,81.02
2018-05-26T10:47:49.442Z,80.71
2018-05-26T10:48:56.249Z,81.12
2018-05-26T10:50:03.030Z,80.70
2018-05-26T10:51:09.752Z,80.19
2018-05-26T10:52:16.494Z,80.30
2018-05-26T10:53:23.270Z,80.04
2018-05-26T10:54:30.106Z,80.01
2018-05-26T10:55:36.826Z,80.23
2018-05-26T10:56:43.614Z,79.98
2018-05-26T10:57:50.337Z,79.93
2018-05-26T10:58:57.082Z,79.21
2018-05-26T11:00:03.843Z,79.17
2018-05-26T11:01:10.599Z,78.97
2018-05-26T11:02:17.698Z,78.94
2018-05-26T11:03:24.470Z,78.71
2018-05-26T11:04:31.227Z,78.82
2018-05-26T11:05:37.963Z,78.64
2018-05-26T11:06:44.718Z,78.51
2018-05-26T11:07:51.539Z,78.13
2018-05-26T11:08:58.251Z,78.25
2018-05-26T11:10:05.019Z,78.11
2018-05-26T11:11:11.746Z,78.03
2018-05-26T11:12:19.958Z,78.00
2018-05-26T11:13:25.214Z,77.99
2018-05-26T11:14:31.956Z,77.39
2018-05-26T11:15:38.717Z,77.82
2018-05-26T11:16:45.463Z,77.25
2018-05-26T11:17:52.269Z,76.97
2018-05-26T11:18:59.026Z,76.70
2018-05-26T11:20:05.835Z,76.66
2018-05-26T11:21:12.569Z,76.33
2018-05-26T11:22:19.311Z,75.75
2018-05-26T11:23:26.042Z,75.66
2018-05-26T11:24:32.923Z,75.49
2018-05-26T11:25:39.548Z,75.07
2018-05-26T11:26:46.282Z,75.14
2018-05-26T11:27:53.384Z,74.74
2018-05-26T11:29:00.232Z,74.68
2018-05-26T11:30:06.978Z,74.24
2018-05-26T11:31:13.713Z,73.83
2018-05-26T11:32:20.514Z,73.66
2018-05-26T11:33:27.310Z,74.04
2018-05-26T11:34:34.079Z,74.43
2018-05-26T11:35:40.838Z,74.02
2018-05-26T11:36:47.646Z,73.75
2018-05-26T11:37:54.366Z,74.21
2018-05-26T11:39:01.132Z,73.53
2018-05-26T11:40:08.164Z,73.13
2018-05-26T11:41:16.090Z,73.22
2018-05-26T11:42:21.859Z,73.87
2018-05-26T11:43:28.601Z,73.96
2018-05-26T11:44:35.386Z,73.28
2018-05-26T11:45:42.093Z,72.94
2018-05-26T11:46:48.818Z,72.66
2018-05-26T11:47:55.554Z,72.35
2018-05-26T11:49:02.340Z,72.25
2018-05-26T11:50:09.090Z,72.32
2018-05-26T11:51:15.831Z,71.65
2018-05-26T11:52:22.567Z,71.39
2018-05-26T11:53:29.286Z,71.83
2018-05-26T11:54:36.070Z,72.41
2018-05-26T11:55:42.815Z,72.32
2018-05-26T11:56:49.529Z,71.76
2018-05-26T11:57:56.286Z,72.16
2018-05-26T11:59:03.023Z,72.32
2018-05-26T12:00:09.820Z,72.02
2018-05-26T12:01:16.590Z,71.50
2018-05-26T12:02:23.368Z,71.14
2018-05-26T12:03:30.094Z,70.57
2018-05-26T12:04:36.885Z,70.05
2018-05-26T12:05:43.618Z,70.00
2018-05-26T12:06:50.361Z,69.72
2018-05-26T12:07:58.105Z,69.24
2018-05-26T12:09:03.870Z,69.08
2018-05-26T12:10:10.706Z,69.04
2018-05-26T12:11:17.445Z,69.17
2018-05-26T12:12:24.195Z,69.33
2018-05-26T12:13:30.925Z,69.60
2018-05-26T12:14:37.658Z,69.32
2018-05-26T12:15:44.406Z,69.15
2018-05-26T12:16:51.131Z,68.80
2018-05-26T12:17:57.832Z,68.69
2018-05-26T12:19:04.637Z,68.80
2018-05-26T12:20:11.397Z,68.69
2018-05-26T12:21:18.126Z,68.66
2018-05-26T12:22:24.851Z,68.72
2018-05-26T12:23:31.584Z,68.68
2018-05-26T12:24:38.274Z,68.78
2018-05-26T12:25:46.570Z,68.28
2018-05-26T12:26:51.818Z,67.85
2018-05-26T12:27:58.881Z,67.87
2018-05-26T12:29:05.690Z,67.94
2018-05-26T12:30:12.632Z,67.64
2018-05-26T12:31:19.387Z,67.87
2018-05-26T12:32:26.166Z,67.66
2018-05-26T12:33:32.943Z,67.94
2018-05-26T12:34:39.739Z,68.72
2018-05-26T12:35:46.489Z,68.19
2018-05-26T12:36:53.242Z,67.56
2018-05-26T12:37:59.961Z,67.71
2018-05-26T12:39:06.725Z,67.20
2018-05-26T12:40:13.571Z,67.13
2018-05-26T12:41:20.446Z,67.13
2018-05-26T12:42:27.174Z,66.87
2018-05-26T12:43:33.958Z,67.26
2018-05-26T12:44:40.699Z,67.03
2018-05-26T12:45:47.460Z,66.68
2018-05-26T12:46:54.191Z,66.50
2018-05-26T12:48:00.971Z,65.95
2018-05-26T12:49:07.786Z,66.29
2018-05-26T12:50:14.554Z,66.22
2018-05-26T12:51:21.272Z,66.84
2018-05-26T12:52:28.014Z,66.11
2018-05-26T12:53:34.780Z,66.15
2018-05-26T12:54:41.510Z,66.66
2018-05-26T12:55:48.279Z,66.91
2018-05-26T12:56:54.987Z,66.98
2018-05-26T12:58:01.770Z,65.91
2018-05-26T12:59:08.611Z,65.91
2018-05-26T13:00:15.325Z,65.11
2018-05-26T13:01:22.133Z,65.59
2018-05-26T13:02:28.862Z,66.11
2018-05-26T13:03:35.566Z,65.82
2018-05-26T13:04:42.297Z,66.16
2018-05-26T13:05:49.102Z,66.05
2018-05-26T13:06:55.830Z,65.74
2018-05-26T13:08:02.579Z,65.46
2018-05-26T13:09:09.488Z,65.20
2018-05-26T13:10:16.179Z,64.70
2018-05-26T13:11:22.941Z,64.09
2018-05-26T13:12:29.635Z,63.49
2018-05-26T13:13:36.354Z,63.59
2018-05-26T13:14:43.067Z,63.45
2018-05-26T13:15:49.782Z,63.50
2018-05-26T13:16:56.530Z,63.75
2018-05-26T13:18:03.238Z,63.78
2018-05-26T13:19:09.986Z,63.55
2018-05-26T13:20:16.729Z,62.83
2018-05-26T13:21:23.474Z,62.76
2018-05-26T13:22:30.257Z,62.53
2018-05-26T13:23:36.958Z,62.28
2018-05-26T13:24:43.710Z,62.06
2018-05-26T13:25:50.418Z,61.44
2018-05-26T13:26:57.170Z,61.29
2018-05-26T13:28:03.931Z,61.35
2018-05-26T13:29:10.706Z,61.55
2018-05-26T13:30:17.433Z,62.43
2018-05-26T13:31:24.151Z,62.48
2018-05-26T13:32:30.904Z,63.11
2018-05-26T13:33:37.731Z,63.66
2018-05-26T13:34:44.466Z,63.76
2018-05-26T13:35:51.175Z,63.83
2018-05-26T13:36:57.910Z,64.50
2018-05-26T13:38:04.634Z,64.37
2018-05-26T13:39:11.381Z,63.77
2018-05-26T13:40:18.098Z,63.17
2018-05-26T13:41:24.822Z,62.89
2018-05-26T13:42:31.618Z,62.83
2018-05-26T13:43:38.443Z,62.56
2018-05-26T13:44:45.109Z,62.44
2018-05-26T13:45:51.830Z,62.62
2018-05-26T13:46:58.545Z,61.55
2018-05-26T13:48:05.455Z,61.36
2018-05-26T13:49:12.463Z,61.35
2018-05-26T13:50:19.218Z,61.89
2018-05-26T13:51:25.997Z,61.37
2018-05-26T13:52:32.705Z,61.24
2018-05-26T13:53:39.509Z,61.18
2018-05-26T13:54:46.181Z,60.85
2018-05-26T13:55:52.911Z,60.71
2018-05-26T13:56:59.654Z,60.25
2018-05-26T13:58:06.397Z,60.55
2018-05-26T13:59:13.160Z,60.86
2018-05-26T14:00:20.063Z,60.03
2018-05-26T14:01:26.776Z,60.18
2018-05-26T14:02:33.511Z,59.79
2018-05-26T14:03:40.246Z,59.65
2018-05-26T14:04:47.015Z,59.76
2018-05-26T14:05:53.714Z,59.98
2018-05-26T14:07:00.473Z,59.98
2018-05-26T14:08:07.262Z,59.87
2018-05-26T14:09:13.985Z,59.87
2018-05-26T14:10:20.761Z,60.35
2018-05-26T14:11:27.580Z,60.85
2018-05-26T14:12:34.378Z,60.25
2018-05-26T14:13:41.232Z,60.86
2018-05-26T14:14:48.041Z,61.43
2018-05-26T14:15:54.830Z,60.90
2018-05-26T14:17:01.582Z,60.47
2018-05-26T14:18:08.461Z,61.08
2018-05-26T14:19:15.325Z,61.14
2018-05-26T14:20:22.068Z,60.68